Terminal Aerodrome Forecast
Issued by NWS Buffalo, NY

Home | Current Version | Previous Version | Text Only | Print | Product List | Glossary On
Versions: 1 2 3 4 5 6 7 8 9 10 11 12 13 14 15 16 17 18 19 20 21 22 23 24 25 26 27
142
FTUS41 KBUF 200937 AAA
TAFROC
TAF AMD
KROC 200937Z 2010/2106 27015G25KT P6SM VCSH BKN040
     FM201500 26017G27KT P6SM BKN040
     FM202300 23012G22KT P6SM BKN100
     FM210300 22012KT P6SM SCT130 WS020/24040KT=

USA.gov is the U.S. government's official web portal to all federal, state and local government web resources and services.